Atterbury, Illinois
Current Conditions -  °F | °C
As of 1:52 PM on Monday 22 Dec 2014 (Local Time) from KSPI Reporting Station
Light Rain Light Rain  
Wind Chill:   Ceiling: 600
Heat Index:   Visibility: 3mi
Dew Point:   Wind: 15mph
Humidity: 97%   Direction: 150°SSE
Pressure: 29.61"   Gusts: NA
Location:  40.0452°N, 89.8548°W
Report Text: KSPI 221952Z 15013KT 3SM -RA BR OVC006 07/07 A2961 RMK AO2 SLP030 P0004 T00720067
Loading
Personal Weather Stations






























Interactive Weather Map New forecast layout! Learn more

10-Day Weather Forecast

Advertisements
Track Severe Weather on mobile